sensor_id;sensor_type;location;lat;lon;timestamp;P1;durP1;ratioP1;P2;durP2;ratioP2
52186;SDS011;38161;53.020;6.598;2023-07-13T00:00:46;7.90;;;3.50;;
52186;SDS011;38161;53.020;6.598;2023-07-13T00:03:12;6.55;;;3.63;;
52186;SDS011;38161;53.020;6.598;2023-07-13T00:05:39;7.72;;;3.63;;
52186;SDS011;38161;53.020;6.598;2023-07-13T00:08:06;6.78;;;3.70;;
52186;SDS011;38161;53.020;6.598;2023-07-13T00:10:33;8.88;;;3.90;;
52186;SDS011;38161;53.020;6.598;2023-07-13T00:13:03;7.60;;;3.92;;
52186;SDS011;38161;53.020;6.598;2023-07-13T00:15:29;10.27;;;3.63;;
52186;SDS011;38161;53.020;6.598;2023-07-13T00:17:57;8.65;;;4.28;;
52186;SDS011;38161;53.020;6.598;2023-07-13T00:20:26;9.65;;;4.53;;
52186;SDS011;38161;53.020;6.598;2023-07-13T00:22:52;5.50;;;4.20;;
52186;SDS011;38161;53.020;6.598;2023-07-13T00:25:19;11.05;;;4.18;;
52186;SDS011;38161;53.020;6.598;2023-07-13T00:27:46;11.43;;;4.55;;
52186;SDS011;38161;53.020;6.598;2023-07-13T00:30:16;10.02;;;4.20;;
52186;SDS011;38161;53.020;6.598;2023-07-13T00:35:08;7.40;;;4.18;;
52186;SDS011;38161;53.020;6.598;2023-07-13T00:37:34;8.73;;;4.05;;
52186;SDS011;38161;53.020;6.598;2023-07-13T00:40:05;8.18;;;3.65;;
52186;SDS011;38161;53.020;6.598;2023-07-13T00:42:32;10.27;;;4.55;;
52186;SDS011;38161;53.020;6.598;2023-07-13T00:45:02;8.18;;;4.57;;
52186;SDS011;38161;53.020;6.598;2023-07-13T00:47:51;13.38;;;4.80;;
52186;SDS011;38161;53.020;6.598;2023-07-13T00:50:17;9.07;;;6.10;;
52186;SDS011;38161;53.020;6.598;2023-07-13T00:52:45;9.32;;;4.38;;
52186;SDS011;38161;53.020;6.598;2023-07-13T00:55:13;11.15;;;4.63;;
52186;SDS011;38161;53.020;6.598;2023-07-13T00:57:40;8.10;;;3.92;;
52186;SDS011;38161;53.020;6.598;2023-07-13T01:00:07;17.67;;;5.00;;
52186;SDS011;38161;53.020;6.598;2023-07-13T01:02:34;10.00;;;5.70;;
52186;SDS011;38161;53.020;6.598;2023-07-13T01:05:08;8.18;;;4.05;;
52186;SDS011;38161;53.020;6.598;2023-07-13T01:07:45;8.30;;;4.97;;
52186;SDS011;38161;53.020;6.598;2023-07-13T01:10:15;10.88;;;4.70;;
52186;SDS011;38161;53.020;6.598;2023-07-13T01:12:40;15.45;;;5.53;;
52186;SDS011;38161;53.020;6.598;2023-07-13T01:15:33;10.55;;;5.13;;
52186;SDS011;38161;53.020;6.598;2023-07-13T01:18:07;12.85;;;5.35;;
52186;SDS011;38161;53.020;6.598;2023-07-13T01:20:36;8.15;;;5.38;;
52186;SDS011;38161;53.020;6.598;2023-07-13T01:23:10;14.65;;;6.35;;
52186;SDS011;38161;53.020;6.598;2023-07-13T01:25:38;13.15;;;5.72;;
52186;SDS011;38161;53.020;6.598;2023-07-13T01:28:05;9.85;;;6.00;;
52186;SDS011;38161;53.020;6.598;2023-07-13T01:30:34;9.65;;;5.40;;
52186;SDS011;38161;53.020;6.598;2023-07-13T01:33:01;9.63;;;5.55;;
52186;SDS011;38161;53.020;6.598;2023-07-13T01:35:27;10.10;;;5.90;;
52186;SDS011;38161;53.020;6.598;2023-07-13T01:37:53;16.15;;;6.15;;
52186;SDS011;38161;53.020;6.598;2023-07-13T01:40:20;7.07;;;5.43;;
52186;SDS011;38161;53.020;6.598;2023-07-13T01:42:46;9.50;;;5.57;;
52186;SDS011;38161;53.020;6.598;2023-07-13T01:45:12;10.55;;;5.63;;
52186;SDS011;38161;53.020;6.598;2023-07-13T01:47:37;11.27;;;6.35;;
52186;SDS011;38161;53.020;6.598;2023-07-13T01:50:03;9.23;;;5.88;;
52186;SDS011;38161;53.020;6.598;2023-07-13T01:52:32;12.15;;;6.78;;
52186;SDS011;38161;53.020;6.598;2023-07-13T01:54:58;12.45;;;5.78;;
52186;SDS011;38161;53.020;6.598;2023-07-13T01:57:24;12.18;;;6.15;;
52186;SDS011;38161;53.020;6.598;2023-07-13T01:59:50;7.40;;;5.40;;
52186;SDS011;38161;53.020;6.598;2023-07-13T02:02:16;11.38;;;6.00;;
52186;SDS011;38161;53.020;6.598;2023-07-13T02:04:42;12.23;;;6.28;;
52186;SDS011;38161;53.020;6.598;2023-07-13T02:07:08;9.52;;;6.57;;
52186;SDS011;38161;53.020;6.598;2023-07-13T02:12:00;7.88;;;6.18;;
52186;SDS011;38161;53.020;6.598;2023-07-13T02:14:26;15.02;;;5.85;;
52186;SDS011;38161;53.020;6.598;2023-07-13T02:16:52;10.73;;;5.90;;
52186;SDS011;38161;53.020;6.598;2023-07-13T02:19:18;11.35;;;6.53;;
52186;SDS011;38161;53.020;6.598;2023-07-13T02:21:44;12.38;;;7.30;;
52186;SDS011;38161;53.020;6.598;2023-07-13T02:24:10;8.65;;;5.05;;
52186;SDS011;38161;53.020;6.598;2023-07-13T02:26:40;11.93;;;6.13;;
52186;SDS011;38161;53.020;6.598;2023-07-13T02:29:06;13.48;;;6.50;;
52186;SDS011;38161;53.020;6.598;2023-07-13T02:31:31;8.65;;;5.55;;
52186;SDS011;38161;53.020;6.598;2023-07-13T02:33:57;16.83;;;7.22;;
52186;SDS011;38161;53.020;6.598;2023-07-13T02:36:23;12.73;;;6.43;;
52186;SDS011;38161;53.020;6.598;2023-07-13T02:38:49;9.15;;;5.63;;
52186;SDS011;38161;53.020;6.598;2023-07-13T02:41:15;13.05;;;5.88;;
52186;SDS011;38161;53.020;6.598;2023-07-13T02:43:41;8.18;;;5.82;;
52186;SDS011;38161;53.020;6.598;2023-07-13T02:46:07;11.80;;;6.07;;
52186;SDS011;38161;53.020;6.598;2023-07-13T02:48:33;7.72;;;5.90;;
52186;SDS011;38161;53.020;6.598;2023-07-13T02:51:00;12.18;;;7.38;;
52186;SDS011;38161;53.020;6.598;2023-07-13T02:53:26;11.75;;;6.15;;
52186;SDS011;38161;53.020;6.598;2023-07-13T02:55:52;13.05;;;6.82;;
52186;SDS011;38161;53.020;6.598;2023-07-13T02:58:18;7.82;;;6.25;;
52186;SDS011;38161;53.020;6.598;2023-07-13T03:00:45;10.80;;;8.13;;
52186;SDS011;38161;53.020;6.598;2023-07-13T03:03:12;10.68;;;7.05;;
52186;SDS011;38161;53.020;6.598;2023-07-13T03:05:40;10.10;;;6.72;;
52186;SDS011;38161;53.020;6.598;2023-07-13T03:08:08;10.02;;;6.60;;
52186;SDS011;38161;53.020;6.598;2023-07-13T03:10:35;9.85;;;6.63;;
52186;SDS011;38161;53.020;6.598;2023-07-13T03:13:01;10.07;;;6.68;;
52186;SDS011;38161;53.020;6.598;2023-07-13T03:15:27;18.05;;;6.97;;
52186;SDS011;38161;53.020;6.598;2023-07-13T03:17:53;9.05;;;6.43;;
52186;SDS011;38161;53.020;6.598;2023-07-13T03:20:19;12.27;;;6.72;;
52186;SDS011;38161;53.020;6.598;2023-07-13T03:22:51;14.18;;;7.07;;
52186;SDS011;38161;53.020;6.598;2023-07-13T03:25:17;9.75;;;6.45;;
52186;SDS011;38161;53.020;6.598;2023-07-13T03:27:43;14.80;;;7.60;;
52186;SDS011;38161;53.020;6.598;2023-07-13T03:30:09;14.45;;;7.63;;
52186;SDS011;38161;53.020;6.598;2023-07-13T03:35:01;9.52;;;6.18;;
52186;SDS011;38161;53.020;6.598;2023-07-13T03:37:27;9.88;;;6.20;;
52186;SDS011;38161;53.020;6.598;2023-07-13T03:39:53;11.90;;;7.25;;
52186;SDS011;38161;53.020;6.598;2023-07-13T03:42:19;11.10;;;6.85;;
52186;SDS011;38161;53.020;6.598;2023-07-13T03:44:45;9.82;;;6.50;;
52186;SDS011;38161;53.020;6.598;2023-07-13T03:47:11;9.88;;;7.15;;
52186;SDS011;38161;53.020;6.598;2023-07-13T03:49:37;7.25;;;6.55;;
52186;SDS011;38161;53.020;6.598;2023-07-13T03:52:03;12.93;;;7.25;;
52186;SDS011;38161;53.020;6.598;2023-07-13T03:54:29;8.95;;;6.82;;
52186;SDS011;38161;53.020;6.598;2023-07-13T03:56:55;14.68;;;8.95;;
52186;SDS011;38161;53.020;6.598;2023-07-13T03:59:21;12.65;;;7.47;;
52186;SDS011;38161;53.020;6.598;2023-07-13T04:01:47;10.50;;;6.45;;
52186;SDS011;38161;53.020;6.598;2023-07-13T04:04:13;10.10;;;7.60;;
52186;SDS011;38161;53.020;6.598;2023-07-13T04:06:40;9.65;;;7.00;;
52186;SDS011;38161;53.020;6.598;2023-07-13T04:09:06;9.13;;;6.85;;
52186;SDS011;38161;53.020;6.598;2023-07-13T04:11:34;11.38;;;7.50;;
52186;SDS011;38161;53.020;6.598;2023-07-13T04:14:01;11.90;;;7.38;;
52186;SDS011;38161;53.020;6.598;2023-07-13T04:16:28;8.15;;;6.72;;
52186;SDS011;38161;53.020;6.598;2023-07-13T04:18:54;12.30;;;7.65;;
52186;SDS011;38161;53.020;6.598;2023-07-13T04:21:25;12.98;;;7.60;;
52186;SDS011;38161;53.020;6.598;2023-07-13T04:23:55;8.65;;;7.03;;
52186;SDS011;38161;53.020;6.598;2023-07-13T04:26:21;8.95;;;7.20;;
52186;SDS011;38161;53.020;6.598;2023-07-13T04:31:14;10.45;;;7.22;;
52186;SDS011;38161;53.020;6.598;2023-07-13T04:33:40;13.45;;;9.15;;
52186;SDS011;38161;53.020;6.598;2023-07-13T04:36:06;11.63;;;7.80;;
52186;SDS011;38161;53.020;6.598;2023-07-13T04:38:35;10.82;;;7.07;;
52186;SDS011;38161;53.020;6.598;2023-07-13T04:41:03;13.63;;;8.48;;
52186;SDS011;38161;53.020;6.598;2023-07-13T04:43:30;9.55;;;7.60;;
52186;SDS011;38161;53.020;6.598;2023-07-13T04:45:57;10.65;;;8.20;;
52186;SDS011;38161;53.020;6.598;2023-07-13T04:48:28;10.27;;;7.60;;
52186;SDS011;38161;53.020;6.598;2023-07-13T04:50:54;9.73;;;8.48;;
52186;SDS011;38161;53.020;6.598;2023-07-13T04:53:22;13.48;;;7.80;;
52186;SDS011;38161;53.020;6.598;2023-07-13T04:55:47;11.88;;;7.95;;
52186;SDS011;38161;53.020;6.598;2023-07-13T04:58:13;12.25;;;8.60;;
52186;SDS011;38161;53.020;6.598;2023-07-13T05:00:39;14.57;;;8.63;;
52186;SDS011;38161;53.020;6.598;2023-07-13T05:03:05;10.50;;;8.48;;
52186;SDS011;38161;53.020;6.598;2023-07-13T05:05:31;9.13;;;7.32;;
52186;SDS011;38161;53.020;6.598;2023-07-13T05:07:57;11.57;;;8.00;;
52186;SDS011;38161;53.020;6.598;2023-07-13T05:10:23;13.70;;;8.43;;
52186;SDS011;38161;53.020;6.598;2023-07-13T05:12:50;12.23;;;8.25;;
52186;SDS011;38161;53.020;6.598;2023-07-13T05:15:16;10.38;;;8.90;;
52186;SDS011;38161;53.020;6.598;2023-07-13T05:17:49;8.63;;;7.72;;
52186;SDS011;38161;53.020;6.598;2023-07-13T05:20:15;9.23;;;7.80;;
52186;SDS011;38161;53.020;6.598;2023-07-13T05:22:43;14.85;;;8.32;;
52186;SDS011;38161;53.020;6.598;2023-07-13T05:25:12;10.75;;;8.82;;
52186;SDS011;38161;53.020;6.598;2023-07-13T05:27:38;13.25;;;9.10;;
52186;SDS011;38161;53.020;6.598;2023-07-13T05:30:04;10.60;;;7.82;;
52186;SDS011;38161;53.020;6.598;2023-07-13T05:32:31;13.82;;;9.10;;
52186;SDS011;38161;53.020;6.598;2023-07-13T05:34:56;12.60;;;8.82;;
52186;SDS011;38161;53.020;6.598;2023-07-13T05:37:22;12.77;;;9.52;;
52186;SDS011;38161;53.020;6.598;2023-07-13T05:39:48;12.38;;;9.73;;
52186;SDS011;38161;53.020;6.598;2023-07-13T05:42:14;13.77;;;8.77;;
52186;SDS011;38161;53.020;6.598;2023-07-13T05:44:43;10.75;;;8.77;;
52186;SDS011;38161;53.020;6.598;2023-07-13T05:47:09;10.45;;;7.32;;
52186;SDS011;38161;53.020;6.598;2023-07-13T05:49:35;9.43;;;8.52;;
52186;SDS011;38161;53.020;6.598;2023-07-13T05:52:01;14.05;;;10.48;;
52186;SDS011;38161;53.020;6.598;2023-07-13T05:54:27;9.93;;;8.90;;
52186;SDS011;38161;53.020;6.598;2023-07-13T05:59:19;11.38;;;8.27;;
52186;SDS011;38161;53.020;6.598;2023-07-13T06:01:44;11.82;;;9.02;;
52186;SDS011;38161;53.020;6.598;2023-07-13T06:04:10;13.43;;;9.68;;
52186;SDS011;38161;53.020;6.598;2023-07-13T06:06:36;10.48;;;8.00;;
52186;SDS011;38161;53.020;6.598;2023-07-13T06:09:02;10.10;;;9.10;;
52186;SDS011;38161;53.020;6.598;2023-07-13T06:11:28;10.02;;;9.10;;
52186;SDS011;38161;53.020;6.598;2023-07-13T06:13:55;11.13;;;9.20;;
52186;SDS011;38161;53.020;6.598;2023-07-13T06:18:48;16.83;;;9.35;;
52186;SDS011;38161;53.020;6.598;2023-07-13T06:21:15;12.80;;;9.05;;
52186;SDS011;38161;53.020;6.598;2023-07-13T06:23:43;9.10;;;8.15;;
52186;SDS011;38161;53.020;6.598;2023-07-13T06:26:10;11.40;;;9.68;;
52186;SDS011;38161;53.020;6.598;2023-07-13T06:28:37;10.45;;;9.38;;
52186;SDS011;38161;53.020;6.598;2023-07-13T06:31:05;14.65;;;9.70;;
52186;SDS011;38161;53.020;6.598;2023-07-13T06:33:32;11.23;;;8.65;;
52186;SDS011;38161;53.020;6.598;2023-07-13T06:35:58;11.27;;;8.85;;
52186;SDS011;38161;53.020;6.598;2023-07-13T06:38:24;10.40;;;9.20;;
52186;SDS011;38161;53.020;6.598;2023-07-13T06:40:50;11.70;;;9.93;;
52186;SDS011;38161;53.020;6.598;2023-07-13T06:43:16;10.98;;;9.95;;
52186;SDS011;38161;53.020;6.598;2023-07-13T06:45:44;10.00;;;8.68;;
52186;SDS011;38161;53.020;6.598;2023-07-13T06:48:13;9.75;;;8.73;;
52186;SDS011;38161;53.020;6.598;2023-07-13T06:50:39;12.85;;;9.02;;
52186;SDS011;38161;53.020;6.598;2023-07-13T06:53:06;9.95;;;8.95;;
52186;SDS011;38161;53.020;6.598;2023-07-13T06:55:33;9.90;;;8.80;;
52186;SDS011;38161;53.020;6.598;2023-07-13T06:57:59;10.15;;;8.73;;
52186;SDS011;38161;53.020;6.598;2023-07-13T07:00:25;10.55;;;8.57;;
52186;SDS011;38161;53.020;6.598;2023-07-13T07:02:51;10.07;;;7.63;;
52186;SDS011;38161;53.020;6.598;2023-07-13T07:05:16;10.43;;;9.23;;
52186;SDS011;38161;53.020;6.598;2023-07-13T07:07:42;15.45;;;14.18;;
52186;SDS011;38161;53.020;6.598;2023-07-13T07:10:08;10.70;;;8.15;;
52186;SDS011;38161;53.020;6.598;2023-07-13T07:12:34;12.48;;;7.95;;
52186;SDS011;38161;53.020;6.598;2023-07-13T07:17:26;9.63;;;7.60;;
52186;SDS011;38161;53.020;6.598;2023-07-13T07:19:53;14.38;;;10.77;;
52186;SDS011;38161;53.020;6.598;2023-07-13T07:22:19;9.38;;;7.45;;
52186;SDS011;38161;53.020;6.598;2023-07-13T07:24:46;8.93;;;7.15;;
52186;SDS011;38161;53.020;6.598;2023-07-13T07:27:12;12.25;;;10.57;;
52186;SDS011;38161;53.020;6.598;2023-07-13T07:29:38;7.95;;;6.68;;
52186;SDS011;38161;53.020;6.598;2023-07-13T07:32:04;10.73;;;7.75;;
52186;SDS011;38161;53.020;6.598;2023-07-13T07:34:30;8.50;;;7.70;;
52186;SDS011;38161;53.020;6.598;2023-07-13T07:36:59;9.23;;;7.55;;
52186;SDS011;38161;53.020;6.598;2023-07-13T07:39:26;12.30;;;9.35;;
52186;SDS011;38161;53.020;6.598;2023-07-13T07:41:52;10.55;;;6.57;;
52186;SDS011;38161;53.020;6.598;2023-07-13T07:44:18;12.02;;;7.13;;
52186;SDS011;38161;53.020;6.598;2023-07-13T07:46:44;8.95;;;6.35;;
52186;SDS011;38161;53.020;6.598;2023-07-13T07:49:10;9.73;;;6.40;;
52186;SDS011;38161;53.020;6.598;2023-07-13T07:51:36;8.52;;;6.72;;
52186;SDS011;38161;53.020;6.598;2023-07-13T07:54:03;9.40;;;5.93;;
52186;SDS011;38161;53.020;6.598;2023-07-13T07:56:29;7.68;;;6.90;;
52186;SDS011;38161;53.020;6.598;2023-07-13T07:58:55;9.00;;;7.80;;
52186;SDS011;38161;53.020;6.598;2023-07-13T08:01:21;8.05;;;6.43;;
52186;SDS011;38161;53.020;6.598;2023-07-13T08:03:48;7.97;;;6.63;;
52186;SDS011;38161;53.020;6.598;2023-07-13T08:08:42;7.13;;;6.38;;
52186;SDS011;38161;53.020;6.598;2023-07-13T08:11:08;8.27;;;7.03;;
52186;SDS011;38161;53.020;6.598;2023-07-13T08:13:34;9.52;;;7.75;;
52186;SDS011;38161;53.020;6.598;2023-07-13T08:16:00;7.57;;;5.88;;
52186;SDS011;38161;53.020;6.598;2023-07-13T08:18:29;9.77;;;6.75;;
52186;SDS011;38161;53.020;6.598;2023-07-13T08:20:55;7.90;;;7.18;;
52186;SDS011;38161;53.020;6.598;2023-07-13T08:23:24;11.13;;;7.68;;
52186;SDS011;38161;53.020;6.598;2023-07-13T08:25:53;11.10;;;7.93;;
52186;SDS011;38161;53.020;6.598;2023-07-13T08:28:20;9.02;;;7.72;;
52186;SDS011;38161;53.020;6.598;2023-07-13T08:30:46;10.32;;;8.30;;
52186;SDS011;38161;53.020;6.598;2023-07-13T08:33:23;8.52;;;7.72;;
52186;SDS011;38161;53.020;6.598;2023-07-13T08:35:51;8.70;;;7.80;;
52186;SDS011;38161;53.020;6.598;2023-07-13T08:38:17;7.80;;;7.05;;
52186;SDS011;38161;53.020;6.598;2023-07-13T08:40:44;7.50;;;6.85;;
52186;SDS011;38161;53.020;6.598;2023-07-13T08:43:18;15.82;;;9.95;;
52186;SDS011;38161;53.020;6.598;2023-07-13T08:45:52;10.88;;;9.55;;
52186;SDS011;38161;53.020;6.598;2023-07-13T08:48:47;11.77;;;9.07;;
52186;SDS011;38161;53.020;6.598;2023-07-13T08:54:03;10.07;;;9.07;;
52186;SDS011;38161;53.020;6.598;2023-07-13T08:56:35;10.23;;;9.32;;
52186;SDS011;38161;53.020;6.598;2023-07-13T08:59:04;9.20;;;8.35;;
52186;SDS011;38161;53.020;6.598;2023-07-13T09:01:49;9.52;;;8.63;;
52186;SDS011;38161;53.020;6.598;2023-07-13T09:04:29;11.05;;;10.07;;
52186;SDS011;38161;53.020;6.598;2023-07-13T09:15:31;12.82;;;11.73;;
52186;SDS011;38161;53.020;6.598;2023-07-13T09:18:22;9.73;;;9.05;;
52186;SDS011;38161;53.020;6.598;2023-07-13T09:21:13;15.07;;;14.00;;
52186;SDS011;38161;53.020;6.598;2023-07-13T09:24:03;12.95;;;11.95;;
52186;SDS011;38161;53.020;6.598;2023-07-13T09:26:42;12.80;;;11.85;;
52186;SDS011;38161;53.020;6.598;2023-07-13T09:29:14;12.38;;;11.38;;
52186;SDS011;38161;53.020;6.598;2023-07-13T09:34:17;14.48;;;13.38;;
52186;SDS011;38161;53.020;6.598;2023-07-13T09:36:46;11.45;;;10.43;;
52186;SDS011;38161;53.020;6.598;2023-07-13T09:39:19;13.52;;;12.60;;
52186;SDS011;38161;53.020;6.598;2023-07-13T09:47:17;13.63;;;12.55;;
52186;SDS011;38161;53.020;6.598;2023-07-13T09:49:44;14.65;;;13.48;;
52186;SDS011;38161;53.020;6.598;2023-07-13T09:52:12;14.43;;;13.43;;
52186;SDS011;38161;53.020;6.598;2023-07-13T09:54:44;14.45;;;13.23;;
52186;SDS011;38161;53.020;6.598;2023-07-13T09:57:18;14.63;;;13.63;;
52186;SDS011;38161;53.020;6.598;2023-07-13T09:59:48;14.50;;;13.45;;
52186;SDS011;38161;53.020;6.598;2023-07-13T10:02:23;14.40;;;13.23;;
52186;SDS011;38161;53.020;6.598;2023-07-13T10:04:55;15.07;;;13.93;;
52186;SDS011;38161;53.020;6.598;2023-07-13T10:07:23;14.38;;;13.40;;
52186;SDS011;38161;53.020;6.598;2023-07-13T10:09:53;15.05;;;13.93;;
52186;SDS011;38161;53.020;6.598;2023-07-13T10:12:21;15.75;;;14.55;;
52186;SDS011;38161;53.020;6.598;2023-07-13T10:14:50;13.93;;;12.73;;
52186;SDS011;38161;53.020;6.598;2023-07-13T10:17:26;13.23;;;12.30;;
52186;SDS011;38161;53.020;6.598;2023-07-13T10:20:04;13.93;;;12.70;;
52186;SDS011;38161;53.020;6.598;2023-07-13T10:22:52;14.80;;;13.77;;
52186;SDS011;38161;53.020;6.598;2023-07-13T10:25:36;13.77;;;12.52;;
52186;SDS011;38161;53.020;6.598;2023-07-13T10:28:41;14.23;;;13.05;;
52186;SDS011;38161;53.020;6.598;2023-07-13T10:31:03;11.70;;;10.70;;
52186;SDS011;38161;53.020;6.598;2023-07-13T10:33:36;12.80;;;11.73;;
52186;SDS011;38161;53.020;6.598;2023-07-13T10:39:02;11.88;;;10.88;;
52186;SDS011;38161;53.020;6.598;2023-07-13T10:41:32;14.35;;;13.07;;
52186;SDS011;38161;53.020;6.598;2023-07-13T10:44:01;14.15;;;13.15;;
52186;SDS011;38161;53.020;6.598;2023-07-13T10:46:28;13.82;;;12.73;;
52186;SDS011;38161;53.020;6.598;2023-07-13T10:48:59;13.02;;;12.02;;
52186;SDS011;38161;53.020;6.598;2023-07-13T10:51:29;13.52;;;12.32;;
52186;SDS011;38161;53.020;6.598;2023-07-13T10:56:42;12.85;;;11.65;;
52186;SDS011;38161;53.020;6.598;2023-07-13T11:01:48;15.38;;;14.07;;
52186;SDS011;38161;53.020;6.598;2023-07-13T11:04:40;14.07;;;12.88;;
52186;SDS011;38161;53.020;6.598;2023-07-13T11:07:23;17.13;;;13.48;;
52186;SDS011;38161;53.020;6.598;2023-07-13T11:09:56;16.10;;;14.98;;
52186;SDS011;38161;53.020;6.598;2023-07-13T11:15:13;14.48;;;13.43;;
52186;SDS011;38161;53.020;6.598;2023-07-13T11:22:43;11.65;;;10.70;;
52186;SDS011;38161;53.020;6.598;2023-07-13T11:25:29;13.93;;;12.88;;
52186;SDS011;38161;53.020;6.598;2023-07-13T11:30:44;11.63;;;10.70;;
52186;SDS011;38161;53.020;6.598;2023-07-13T11:33:24;13.60;;;12.45;;
52186;SDS011;38161;53.020;6.598;2023-07-13T11:38:49;11.98;;;11.02;;
52186;SDS011;38161;53.020;6.598;2023-07-13T11:41:24;11.90;;;11.10;;
52186;SDS011;38161;53.020;6.598;2023-07-13T11:43:55;11.98;;;11.05;;
52186;SDS011;38161;53.020;6.598;2023-07-13T11:46:43;13.40;;;12.50;;
52186;SDS011;38161;53.020;6.598;2023-07-13T11:49:13;10.93;;;9.75;;
52186;SDS011;38161;53.020;6.598;2023-07-13T11:51:41;10.15;;;9.35;;
52186;SDS011;38161;53.020;6.598;2023-07-13T11:54:29;8.85;;;7.13;;
52186;SDS011;38161;53.020;6.598;2023-07-13T11:59:31;7.60;;;7.00;;
52186;SDS011;38161;53.020;6.598;2023-07-13T12:01:58;7.30;;;6.60;;
52186;SDS011;38161;53.020;6.598;2023-07-13T12:04:25;8.70;;;8.00;;
52186;SDS011;38161;53.020;6.598;2023-07-13T12:07:05;6.60;;;5.88;;
52186;SDS011;38161;53.020;6.598;2023-07-13T12:12:02;7.95;;;7.25;;
52186;SDS011;38161;53.020;6.598;2023-07-13T12:14:35;7.38;;;6.70;;
52186;SDS011;38161;53.020;6.598;2023-07-13T12:17:04;9.00;;;6.78;;
52186;SDS011;38161;53.020;6.598;2023-07-13T12:19:36;6.63;;;6.13;;
52186;SDS011;38161;53.020;6.598;2023-07-13T12:22:02;6.45;;;5.57;;
52186;SDS011;38161;53.020;6.598;2023-07-13T12:24:29;5.05;;;4.55;;
52186;SDS011;38161;53.020;6.598;2023-07-13T12:27:03;5.65;;;5.03;;
52186;SDS011;38161;53.020;6.598;2023-07-13T12:29:30;5.95;;;4.95;;
52186;SDS011;38161;53.020;6.598;2023-07-13T12:31:58;6.70;;;4.45;;
52186;SDS011;38161;53.020;6.598;2023-07-13T12:34:25;5.30;;;4.78;;
52186;SDS011;38161;53.020;6.598;2023-07-13T12:36:53;5.82;;;4.53;;
52186;SDS011;38161;53.020;6.598;2023-07-13T12:40:03;4.60;;;4.20;;
52186;SDS011;38161;53.020;6.598;2023-07-13T12:42:24;4.90;;;4.28;;
52186;SDS011;38161;53.020;6.598;2023-07-13T12:44:53;6.30;;;4.75;;
52186;SDS011;38161;53.020;6.598;2023-07-13T12:47:20;5.43;;;4.93;;
52186;SDS011;38161;53.020;6.598;2023-07-13T12:49:57;6.53;;;3.90;;
52186;SDS011;38161;53.020;6.598;2023-07-13T12:54:59;4.80;;;3.92;;
52186;SDS011;38161;53.020;6.598;2023-07-13T12:57:51;6.60;;;4.32;;
52186;SDS011;38161;53.020;6.598;2023-07-13T13:00:27;5.10;;;4.25;;
52186;SDS011;38161;53.020;6.598;2023-07-13T13:03:01;5.95;;;4.90;;
52186;SDS011;38161;53.020;6.598;2023-07-13T13:05:46;4.68;;;3.60;;
52186;SDS011;38161;53.020;6.598;2023-07-13T13:08:12;3.95;;;3.42;;
52186;SDS011;38161;53.020;6.598;2023-07-13T13:13:04;4.53;;;2.92;;
52186;SDS011;38161;53.020;6.598;2023-07-13T13:15:30;5.40;;;3.10;;
52186;SDS011;38161;53.020;6.598;2023-07-13T13:17:56;4.60;;;3.60;;
52186;SDS011;38161;53.020;6.598;2023-07-13T13:20:24;5.97;;;3.67;;
52186;SDS011;38161;53.020;6.598;2023-07-13T13:22:53;4.25;;;3.83;;
52186;SDS011;38161;53.020;6.598;2023-07-13T13:25:19;5.32;;;3.92;;
52186;SDS011;38161;53.020;6.598;2023-07-13T13:27:45;7.15;;;3.83;;
52186;SDS011;38161;53.020;6.598;2023-07-13T13:30:12;4.47;;;3.47;;
52186;SDS011;38161;53.020;6.598;2023-07-13T13:32:43;4.63;;;3.45;;
52186;SDS011;38161;53.020;6.598;2023-07-13T13:35:17;4.15;;;3.75;;
52186;SDS011;38161;53.020;6.598;2023-07-13T13:37:45;3.95;;;3.47;;
52186;SDS011;38161;53.020;6.598;2023-07-13T13:42:42;4.60;;;3.65;;
52186;SDS011;38161;53.020;6.598;2023-07-13T13:45:12;5.03;;;4.15;;
52186;SDS011;38161;53.020;6.598;2023-07-13T13:47:38;4.47;;;4.00;;
52186;SDS011;38161;53.020;6.598;2023-07-13T13:50:19;3.80;;;3.40;;
52186;SDS011;38161;53.020;6.598;2023-07-13T13:52:49;6.72;;;4.13;;
52186;SDS011;38161;53.020;6.598;2023-07-13T13:55:16;3.70;;;3.08;;
52186;SDS011;38161;53.020;6.598;2023-07-13T13:57:47;3.75;;;3.08;;
52186;SDS011;38161;53.020;6.598;2023-07-13T14:00:14;4.22;;;2.80;;
52186;SDS011;38161;53.020;6.598;2023-07-13T14:02:44;6.68;;;3.15;;
52186;SDS011;38161;53.020;6.598;2023-07-13T14:05:13;3.80;;;2.78;;
52186;SDS011;38161;53.020;6.598;2023-07-13T14:07:41;4.00;;;3.22;;
52186;SDS011;38161;53.020;6.598;2023-07-13T14:10:12;4.88;;;3.22;;
52186;SDS011;38161;53.020;6.598;2023-07-13T14:12:43;3.97;;;3.00;;
52186;SDS011;38161;53.020;6.598;2023-07-13T14:15:17;6.82;;;3.42;;
52186;SDS011;38161;53.020;6.598;2023-07-13T14:17:47;4.20;;;2.88;;
52186;SDS011;38161;53.020;6.598;2023-07-13T14:20:16;3.42;;;3.10;;
52186;SDS011;38161;53.020;6.598;2023-07-13T14:22:44;6.25;;;3.10;;
52186;SDS011;38161;53.020;6.598;2023-07-13T14:25:11;4.88;;;3.63;;
52186;SDS011;38161;53.020;6.598;2023-07-13T14:27:37;5.05;;;3.15;;
52186;SDS011;38161;53.020;6.598;2023-07-13T14:30:09;4.13;;;2.70;;
52186;SDS011;38161;53.020;6.598;2023-07-13T14:32:42;6.65;;;4.18;;
52186;SDS011;38161;53.020;6.598;2023-07-13T14:35:13;3.60;;;2.92;;
52186;SDS011;38161;53.020;6.598;2023-07-13T14:37:40;3.60;;;3.03;;
52186;SDS011;38161;53.020;6.598;2023-07-13T14:42:38;5.20;;;2.80;;
52186;SDS011;38161;53.020;6.598;2023-07-13T14:45:04;5.28;;;3.30;;
52186;SDS011;38161;53.020;6.598;2023-07-13T14:47:30;3.95;;;2.50;;
52186;SDS011;38161;53.020;6.598;2023-07-13T14:49:56;3.45;;;2.83;;
52186;SDS011;38161;53.020;6.598;2023-07-13T14:52:23;4.03;;;2.78;;
52186;SDS011;38161;53.020;6.598;2023-07-13T14:54:50;4.82;;;3.25;;
52186;SDS011;38161;53.020;6.598;2023-07-13T14:57:18;5.20;;;3.40;;
52186;SDS011;38161;53.020;6.598;2023-07-13T14:59:45;6.50;;;3.63;;
52186;SDS011;38161;53.020;6.598;2023-07-13T15:04:49;5.38;;;3.30;;
52186;SDS011;38161;53.020;6.598;2023-07-13T15:07:15;5.97;;;4.57;;
52186;SDS011;38161;53.020;6.598;2023-07-13T15:09:43;7.93;;;6.20;;
52186;SDS011;38161;53.020;6.598;2023-07-13T15:12:09;12.02;;;8.75;;
52186;SDS011;38161;53.020;6.598;2023-07-13T15:17:01;6.22;;;4.55;;
52186;SDS011;38161;53.020;6.598;2023-07-13T15:21:56;5.50;;;3.85;;
52186;SDS011;38161;53.020;6.598;2023-07-13T15:24:25;7.30;;;5.28;;
52186;SDS011;38161;53.020;6.598;2023-07-13T15:26:51;4.22;;;3.30;;
52186;SDS011;38161;53.020;6.598;2023-07-13T15:29:17;4.82;;;3.60;;
52186;SDS011;38161;53.020;6.598;2023-07-13T15:31:44;5.05;;;3.35;;
52186;SDS011;38161;53.020;6.598;2023-07-13T15:34:12;6.35;;;4.70;;
52186;SDS011;38161;53.020;6.598;2023-07-13T15:36:40;8.98;;;8.07;;
52186;SDS011;38161;53.020;6.598;2023-07-13T15:39:06;33.28;;;22.90;;
52186;SDS011;38161;53.020;6.598;2023-07-13T15:43:58;14.82;;;9.95;;
52186;SDS011;38161;53.020;6.598;2023-07-13T15:46:27;15.85;;;10.30;;
52186;SDS011;38161;53.020;6.598;2023-07-13T15:48:54;15.95;;;10.00;;
52186;SDS011;38161;53.020;6.598;2023-07-13T15:53:49;6.97;;;4.75;;
52186;SDS011;38161;53.020;6.598;2023-07-13T15:56:21;6.65;;;4.28;;
52186;SDS011;38161;53.020;6.598;2023-07-13T15:58:48;5.15;;;3.75;;
52186;SDS011;38161;53.020;6.598;2023-07-13T16:01:16;6.68;;;4.35;;
52186;SDS011;38161;53.020;6.598;2023-07-13T16:03:42;4.78;;;3.63;;
52186;SDS011;38161;53.020;6.598;2023-07-13T16:08:43;4.30;;;2.53;;
52186;SDS011;38161;53.020;6.598;2023-07-13T16:11:21;4.38;;;3.22;;
52186;SDS011;38161;53.020;6.598;2023-07-13T16:13:49;5.10;;;3.20;;
52186;SDS011;38161;53.020;6.598;2023-07-13T16:16:21;5.93;;;3.53;;
52186;SDS011;38161;53.020;6.598;2023-07-13T16:19:02;4.53;;;3.00;;